Weather at El Carmen Airport [CLOSED]

Public forecast

Using degrees Celsius for public forecast. Weather courtesy of forecast.io.

Closest aviation weather report (METAR) to El Carmen Airport

Closest report is Jardines Del Rey Airport, 32.5 nm (60.2 km) NNW.

2024/05/25 03:50 (retrieved 51 minutes ago)

MUCC 250350Z 14004KT 9000 FEW020 27/24 Q1014

Closest aviation forecast (TAF) to El Carmen Airport

Forecast is more than 12 hours old.

Closest forecast is Jaime Gonzalez Airport, 125.8 nm (233.0 km) W.

2024/05/23 18:03 (retrieved 1 day ago)

TAF MUCF 231700Z 2318/2406 VRB04KT 9000 SCT020 TEMPO 2320/2324 5000 RA FEW018CB BKN020